Decoded Metar for CYVP (QUUJJUAQ in QC, CANADA) (IATA:YVP) | Meteo·Mobile Aviation Weather
aviador You're here:

CYVP Decoded Metar

QUUJJUAQ in QC, CANADA
Report Time2018-11-14 10:00:00
UTC Time2018-11-14 10:57:52
Flight Rules mvfr MVFR
Wind120° at 05 kt
W.Decomp.*RWY 13: 4.9 kt HW 1.2 kt RCW
RWY 07: 1.4 kt HW 4.8 kt RCW
W.Rank120° ranks 34
Current wind is below 120° avg. (6.1)
Visibility9999 m
Phenomena:Light Snow
Clouds:Overcast 026 Hf
Expected CloudBase > 1,200 ft AGL from Temp-Dew spread
Ceiling2,600 ft
Temp-9°C (ISA -24)
Dew Point-12°C (79% RH)
AAT-14.0°C
QNH1004 hPa
Density Alt-2,402 ft
Elevation197 ft
Report Wrong Elevation
Raw Report
CYVP 141000Z 12005KT 15SM -SN OVC026 M09/M12 A2964 RMK SC8
SLP041=

Extra information for CYVP:More info

Metar Taf Metar & Taf Last 4 Metars F.Rules Stats Wind Profile Meteogram Temp Stats Airport Information Weather charts Add Link Nearby VenuesMetar ALERT Operation Metar Decoded Social comments